East Tallassee, Alabama
Current Conditions -  °F | °C
As of 9:35 PM on Monday 20 Oct 2014 (Local Time) from KALX Reporting Station
Clear Clear  
Wind Chill: 54°   Ceiling: Unl
Heat Index: 54°   Visibility: 10mi
Dew Point: 52°   Wind: 0mph
Humidity: 91%   Direction: NA
Pressure: 30.03"   Gusts: NA
Location:  32.53°N, 85.87°W
Report Text: KALX 210235Z AUTO 00000KT 10SM CLR 12/11 A3003 RMK AO2 T01230109
Loading
Personal Weather Stations






























Interactive Weather Map
Tropical Storm Tracking
New forecast layout! Learn more

10-Day Weather Forecast

Advertisements
Track Severe Weather on mobile